Main page
METAR-TAF:

METAR-TAF

Airports :

Rivera International Airport

Rivera, Uruguay

latitude: 30-53S, longitude: 055-32W, elevation: 205 m

METAR: missing

Time: 08:08 (11:08 UTC)

Forecast

The report was made 5 hours and 38 minutes ago, at 05:30 UTC
Forecast valid from 12 at 06 UTC to 13 at 06 UTC
Wind 5 kt from the West
Visibility 10 km or more
no clouds below 1500 m and no cumulonimbus

TAF: SURV 120530Z 1206/1306 26005KT CAVOK TX18/1218Z TN06/1210Z

Weather observations and forecasts of more than 4000 airports (METAR and TAF reports).

The available stations are represented by yellow and red dots on the map.

Hover mouse over dot to see the name of the station.

Then click to see weather observations and forecasts.

To change the map : click on the green buttons with a black cross to zoom in, on the green button with a dash to zoom out, or on the green arrows for adjacent maps.


METAR-TAF: